sensor_id;sensor_type;location;lat;lon;timestamp;pressure;altitude;pressure_sealevel;temperature;humidity
68456;BME280;55437;55.046;38.838;2023-05-16T00:01:22;100627.72;;;10.64;61.04
68456;BME280;55437;55.046;38.838;2023-05-16T00:03:49;100629.63;;;10.56;61.65
68456;BME280;55437;55.046;38.838;2023-05-16T00:06:15;100622.16;;;10.44;61.71
68456;BME280;55437;55.046;38.838;2023-05-16T00:08:41;100628.34;;;10.34;62.44
68456;BME280;55437;55.046;38.838;2023-05-16T00:11:07;100619.97;;;10.23;62.18
68456;BME280;55437;55.046;38.838;2023-05-16T00:13:32;100627.00;;;10.10;62.56
68456;BME280;55437;55.046;38.838;2023-05-16T00:15:58;100617.91;;;9.91;63.17
68456;BME280;55437;55.046;38.838;2023-05-16T00:18:27;100611.22;;;9.84;63.15
68456;BME280;55437;55.046;38.838;2023-05-16T00:20:53;100617.19;;;9.84;63.74
68456;BME280;55437;55.046;38.838;2023-05-16T00:23:19;100609.50;;;9.84;63.71
68456;BME280;55437;55.046;38.838;2023-05-16T00:25:47;100612.94;;;9.83;63.50
68456;BME280;55437;55.046;38.838;2023-05-16T00:28:13;100611.28;;;9.79;63.77
68456;BME280;55437;55.046;38.838;2023-05-16T00:30:38;100610.47;;;9.77;63.94
68456;BME280;55437;55.046;38.838;2023-05-16T00:33:05;100614.78;;;9.75;64.09
68456;BME280;55437;55.046;38.838;2023-05-16T00:35:30;100617.38;;;9.72;64.46
68456;BME280;55437;55.046;38.838;2023-05-16T00:37:56;100619.25;;;9.64;64.20
68456;BME280;55437;55.046;38.838;2023-05-16T00:40:22;100619.41;;;9.53;64.69
68456;BME280;55437;55.046;38.838;2023-05-16T00:42:47;100613.47;;;9.50;64.49
68456;BME280;55437;55.046;38.838;2023-05-16T00:45:13;100624.56;;;9.50;64.71
68456;BME280;55437;55.046;38.838;2023-05-16T00:47:39;100613.50;;;9.48;64.79
68456;BME280;55437;55.046;38.838;2023-05-16T00:50:05;100611.75;;;9.50;64.82
68456;BME280;55437;55.046;38.838;2023-05-16T00:52:31;100616.88;;;9.50;64.93
68456;BME280;55437;55.046;38.838;2023-05-16T00:54:58;100615.19;;;9.49;65.01
68456;BME280;55437;55.046;38.838;2023-05-16T00:57:24;100624.56;;;9.52;64.85
68456;BME280;55437;55.046;38.838;2023-05-16T00:59:50;100629.69;;;9.52;64.71
68456;BME280;55437;55.046;38.838;2023-05-16T01:02:16;100632.25;;;9.52;64.95
68456;BME280;55437;55.046;38.838;2023-05-16T01:04:44;100638.22;;;9.52;65.02
68456;BME280;55437;55.046;38.838;2023-05-16T01:07:10;100639.94;;;9.52;65.13
68456;BME280;55437;55.046;38.838;2023-05-16T01:09:36;100633.19;;;9.45;65.04
68456;BME280;55437;55.046;38.838;2023-05-16T01:12:18;100648.66;;;9.40;65.54
68456;BME280;55437;55.046;38.838;2023-05-16T01:15:24;100645.25;;;9.39;65.60
68456;BME280;55437;55.046;38.838;2023-05-16T01:18:17;100641.84;;;9.37;65.63
68456;BME280;55437;55.046;38.838;2023-05-16T01:21:08;100638.44;;;9.35;65.42
68456;BME280;55437;55.046;38.838;2023-05-16T01:23:59;100637.63;;;9.32;65.68
68456;BME280;55437;55.046;38.838;2023-05-16T01:26:28;100647.97;;;9.27;65.39
68456;BME280;55437;55.046;38.838;2023-05-16T01:28:54;100642.72;;;9.35;65.41
68456;BME280;55437;55.046;38.838;2023-05-16T01:31:21;100641.50;;;9.60;65.00
68456;BME280;55437;55.046;38.838;2023-05-16T01:33:47;100640.97;;;9.94;64.46
68456;BME280;55437;55.046;38.838;2023-05-16T01:36:24;100654.03;;;10.32;63.63
68456;BME280;55437;55.046;38.838;2023-05-16T01:42:02;100641.31;;;11.12;61.87
68456;BME280;55437;55.046;38.838;2023-05-16T01:47:54;100647.22;;;11.93;59.88
68456;BME280;55437;55.046;38.838;2023-05-16T01:50:25;100654.81;;;12.32;58.92
68456;BME280;55437;55.046;38.838;2023-05-16T01:52:59;100651.47;;;12.59;58.28
68456;BME280;55437;55.046;38.838;2023-05-16T01:55:44;100658.38;;;12.89;57.44
68456;BME280;55437;55.046;38.838;2023-05-16T01:58:13;100656.75;;;13.16;56.63
68456;BME280;55437;55.046;38.838;2023-05-16T02:00:40;100656.78;;;13.44;55.73
68456;BME280;55437;55.046;38.838;2023-05-16T02:03:06;100659.13;;;13.78;55.11
68456;BME280;55437;55.046;38.838;2023-05-16T02:05:32;100652.91;;;14.12;54.09
68456;BME280;55437;55.046;38.838;2023-05-16T02:07:58;100649.94;;;14.49;53.21
68456;BME280;55437;55.046;38.838;2023-05-16T02:10:24;100653.72;;;14.87;52.37
68456;BME280;55437;55.046;38.838;2023-05-16T02:12:51;100657.41;;;15.26;51.41
68456;BME280;55437;55.046;38.838;2023-05-16T02:15:17;100651.56;;;15.66;50.52
68456;BME280;55437;55.046;38.838;2023-05-16T02:17:44;100659.19;;;16.11;49.46
68456;BME280;55437;55.046;38.838;2023-05-16T02:20:11;100654.94;;;16.51;48.53
68456;BME280;55437;55.046;38.838;2023-05-16T02:22:37;100658.84;;;16.60;48.06
68456;BME280;55437;55.046;38.838;2023-05-16T02:25:04;100658.47;;;16.69;47.48
68456;BME280;55437;55.046;38.838;2023-05-16T02:27:30;100649.25;;;16.82;47.34
68456;BME280;55437;55.046;38.838;2023-05-16T02:29:57;100649.22;;;17.02;46.66
68456;BME280;55437;55.046;38.838;2023-05-16T02:32:23;100652.84;;;17.17;45.97
68456;BME280;55437;55.046;38.838;2023-05-16T02:34:51;100656.28;;;17.36;45.75
68456;BME280;55437;55.046;38.838;2023-05-16T02:37:16;100651.97;;;17.73;44.95
68456;BME280;55437;55.046;38.838;2023-05-16T02:39:42;100659.78;;;18.07;44.02
68456;BME280;55437;55.046;38.838;2023-05-16T02:42:08;100654.66;;;18.23;43.54
68456;BME280;55437;55.046;38.838;2023-05-16T02:44:34;100653.56;;;18.44;43.29
68456;BME280;55437;55.046;38.838;2023-05-16T02:47:00;100655.03;;;18.98;42.49
68456;BME280;55437;55.046;38.838;2023-05-16T02:49:25;100656.09;;;19.59;41.33
68456;BME280;55437;55.046;38.838;2023-05-16T02:51:51;100660.53;;;20.02;40.40
68456;BME280;55437;55.046;38.838;2023-05-16T02:54:17;100661.31;;;20.19;39.87
68456;BME280;55437;55.046;38.838;2023-05-16T02:56:43;100668.84;;;20.39;39.48
68456;BME280;55437;55.046;38.838;2023-05-16T02:59:10;100670.53;;;20.68;38.96
68456;BME280;55437;55.046;38.838;2023-05-16T03:01:36;100667.38;;;20.92;38.37
68456;BME280;55437;55.046;38.838;2023-05-16T03:04:03;100667.25;;;21.07;38.09
68456;BME280;55437;55.046;38.838;2023-05-16T03:06:30;100663.06;;;21.33;37.62
68456;BME280;55437;55.046;38.838;2023-05-16T03:08:58;100664.91;;;21.31;37.78
68456;BME280;55437;55.046;38.838;2023-05-16T03:11:25;100666.91;;;20.85;38.52
68456;BME280;55437;55.046;38.838;2023-05-16T03:13:51;100662.16;;;20.19;39.19
68456;BME280;55437;55.046;38.838;2023-05-16T03:16:16;100662.13;;;19.43;39.97
68456;BME280;55437;55.046;38.838;2023-05-16T03:18:42;100674.69;;;18.88;40.97
68456;BME280;55437;55.046;38.838;2023-05-16T03:21:34;100674.63;;;18.22;42.29
68456;BME280;55437;55.046;38.838;2023-05-16T03:24:02;100669.78;;;17.97;43.54
68456;BME280;55437;55.046;38.838;2023-05-16T03:26:28;100672.50;;;17.77;43.57
68456;BME280;55437;55.046;38.838;2023-05-16T03:28:54;100671.88;;;18.08;43.28
68456;BME280;55437;55.046;38.838;2023-05-16T03:31:20;100675.28;;;18.60;42.43
68456;BME280;55437;55.046;38.838;2023-05-16T03:33:48;100676.13;;;18.61;42.36
68456;BME280;55437;55.046;38.838;2023-05-16T03:36:14;100670.94;;;19.10;41.60
68456;BME280;55437;55.046;38.838;2023-05-16T03:38:39;100671.88;;;19.24;41.22
68456;BME280;55437;55.046;38.838;2023-05-16T03:41:05;100678.34;;;18.68;41.77
68456;BME280;55437;55.046;38.838;2023-05-16T03:43:31;100686.28;;;18.48;42.15
68456;BME280;55437;55.046;38.838;2023-05-16T03:45:56;100693.09;;;18.68;42.02
68456;BME280;55437;55.046;38.838;2023-05-16T03:48:22;100687.50;;;18.76;41.78
68456;BME280;55437;55.046;38.838;2023-05-16T03:50:48;100690.19;;;18.57;41.41
68456;BME280;55437;55.046;38.838;2023-05-16T03:53:13;100685.00;;;18.40;41.84
68456;BME280;55437;55.046;38.838;2023-05-16T03:55:39;100691.34;;;18.34;41.92
68456;BME280;55437;55.046;38.838;2023-05-16T03:58:05;100683.09;;;18.26;41.88
68456;BME280;55437;55.046;38.838;2023-05-16T04:00:50;100681.25;;;17.93;42.42
68456;BME280;55437;55.046;38.838;2023-05-16T04:03:16;100686.66;;;17.72;42.85
68456;BME280;55437;55.046;38.838;2023-05-16T04:05:41;100684.19;;;17.69;42.95
68456;BME280;55437;55.046;38.838;2023-05-16T04:08:08;100689.16;;;17.73;42.94
68456;BME280;55437;55.046;38.838;2023-05-16T04:10:34;100692.81;;;17.69;43.10
68456;BME280;55437;55.046;38.838;2023-05-16T04:13:00;100696.53;;;17.45;43.21
68456;BME280;55437;55.046;38.838;2023-05-16T04:15:25;100695.00;;;17.22;43.80
68456;BME280;55437;55.046;38.838;2023-05-16T04:17:51;100695.38;;;17.14;44.05
68456;BME280;55437;55.046;38.838;2023-05-16T04:20:17;100699.00;;;17.10;44.01
68456;BME280;55437;55.046;38.838;2023-05-16T04:23:02;100698.09;;;17.11;44.36
68456;BME280;55437;55.046;38.838;2023-05-16T04:25:27;100688.13;;;17.21;43.75
68456;BME280;55437;55.046;38.838;2023-05-16T04:27:53;100695.84;;;17.22;43.84
68456;BME280;55437;55.046;38.838;2023-05-16T04:30:19;100693.09;;;17.44;43.85
68456;BME280;55437;55.046;38.838;2023-05-16T04:32:45;100686.91;;;18.02;42.89
68456;BME280;55437;55.046;38.838;2023-05-16T04:35:11;100699.81;;;18.38;42.26
68456;BME280;55437;55.046;38.838;2023-05-16T04:37:37;100689.19;;;18.25;41.98
68456;BME280;55437;55.046;38.838;2023-05-16T04:40:03;100695.19;;;18.44;41.50
68456;BME280;55437;55.046;38.838;2023-05-16T04:42:31;100700.91;;;19.01;40.39
68456;BME280;55437;55.046;38.838;2023-05-16T04:44:56;100697.44;;;19.65;39.60
68456;BME280;55437;55.046;38.838;2023-05-16T04:47:42;100699.31;;;20.38;38.32
68456;BME280;55437;55.046;38.838;2023-05-16T04:50:08;100701.97;;;21.09;37.31
68456;BME280;55437;55.046;38.838;2023-05-16T04:52:34;100702.97;;;21.07;37.04
68456;BME280;55437;55.046;38.838;2023-05-16T04:55:00;100695.91;;;21.37;36.07
68456;BME280;55437;55.046;38.838;2023-05-16T04:57:26;100695.75;;;21.80;35.73
68456;BME280;55437;55.046;38.838;2023-05-16T05:02:37;100700.63;;;22.51;34.05
68456;BME280;55437;55.046;38.838;2023-05-16T05:05:04;100714.75;;;22.61;33.16
68456;BME280;55437;55.046;38.838;2023-05-16T05:07:31;100711.69;;;22.81;32.96
68456;BME280;55437;55.046;38.838;2023-05-16T05:09:57;100718.41;;;23.22;31.97
68456;BME280;55437;55.046;38.838;2023-05-16T05:12:23;100710.03;;;23.66;31.29
68456;BME280;55437;55.046;38.838;2023-05-16T05:14:49;100717.97;;;23.53;31.06
68456;BME280;55437;55.046;38.838;2023-05-16T05:17:16;100713.81;;;23.13;31.16
68456;BME280;55437;55.046;38.838;2023-05-16T05:19:42;100713.16;;;23.22;30.86
68456;BME280;55437;55.046;38.838;2023-05-16T05:22:08;100708.25;;;23.30;30.25
68456;BME280;55437;55.046;38.838;2023-05-16T05:24:33;100705.69;;;23.05;30.20
68456;BME280;55437;55.046;38.838;2023-05-16T05:27:00;100711.81;;;23.29;30.12
68456;BME280;55437;55.046;38.838;2023-05-16T05:29:25;100700.94;;;23.46;29.91
68456;BME280;55437;55.046;38.838;2023-05-16T05:31:51;100705.50;;;23.68;29.90
68456;BME280;55437;55.046;38.838;2023-05-16T05:34:17;100713.16;;;23.22;29.94
68456;BME280;55437;55.046;38.838;2023-05-16T05:36:42;100701.97;;;23.56;29.67
68456;BME280;55437;55.046;38.838;2023-05-16T05:39:09;100701.41;;;23.40;29.52
68456;BME280;55437;55.046;38.838;2023-05-16T05:41:35;100707.91;;;23.34;29.97
68456;BME280;55437;55.046;38.838;2023-05-16T05:44:01;100708.31;;;23.54;29.59
68456;BME280;55437;55.046;38.838;2023-05-16T05:46:27;100716.09;;;24.14;28.99
68456;BME280;55437;55.046;38.838;2023-05-16T05:48:54;100714.75;;;24.44;28.53
68456;BME280;55437;55.046;38.838;2023-05-16T05:51:21;100715.25;;;24.49;28.01
68456;BME280;55437;55.046;38.838;2023-05-16T05:53:47;100710.84;;;24.14;27.80
68456;BME280;55437;55.046;38.838;2023-05-16T05:56:12;100718.25;;;24.55;27.67
68456;BME280;55437;55.046;38.838;2023-05-16T05:58:38;100716.97;;;24.72;27.09
68456;BME280;55437;55.046;38.838;2023-05-16T06:01:06;100716.00;;;24.62;26.84
68456;BME280;55437;55.046;38.838;2023-05-16T06:03:32;100718.69;;;24.95;26.17
68456;BME280;55437;55.046;38.838;2023-05-16T06:05:58;100719.97;;;25.34;25.58
68456;BME280;55437;55.046;38.838;2023-05-16T06:08:24;100716.44;;;25.56;25.48
68456;BME280;55437;55.046;38.838;2023-05-16T06:10:50;100726.75;;;25.37;25.61
68456;BME280;55437;55.046;38.838;2023-05-16T06:13:15;100727.47;;;25.39;25.78
68456;BME280;55437;55.046;38.838;2023-05-16T06:15:41;100734.06;;;25.00;25.86
68456;BME280;55437;55.046;38.838;2023-05-16T06:18:07;100729.47;;;25.58;25.41
68456;BME280;55437;55.046;38.838;2023-05-16T06:20:32;100729.44;;;26.12;25.20
68456;BME280;55437;55.046;38.838;2023-05-16T06:22:58;100733.91;;;26.53;24.71
68456;BME280;55437;55.046;38.838;2023-05-16T06:25:24;100730.75;;;26.59;24.43
68456;BME280;55437;55.046;38.838;2023-05-16T06:27:49;100728.41;;;26.24;24.52
68456;BME280;55437;55.046;38.838;2023-05-16T06:30:16;100737.41;;;25.90;25.01
68456;BME280;55437;55.046;38.838;2023-05-16T06:32:43;100731.66;;;26.28;24.61
68456;BME280;55437;55.046;38.838;2023-05-16T06:35:08;100748.00;;;26.42;24.54
68456;BME280;55437;55.046;38.838;2023-05-16T06:37:38;100734.47;;;26.77;24.24
68456;BME280;55437;55.046;38.838;2023-05-16T06:40:04;100737.00;;;27.19;23.65
68456;BME280;55437;55.046;38.838;2023-05-16T06:42:49;100738.31;;;27.34;23.42
68456;BME280;55437;55.046;38.838;2023-05-16T06:45:15;100743.63;;;27.04;23.68
68456;BME280;55437;55.046;38.838;2023-05-16T06:47:41;100731.19;;;27.15;23.37
68456;BME280;55437;55.046;38.838;2023-05-16T06:50:07;100738.56;;;26.91;22.99
68456;BME280;55437;55.046;38.838;2023-05-16T06:52:33;100734.56;;;26.97;23.09
68456;BME280;55437;55.046;38.838;2023-05-16T06:54:58;100736.75;;;27.22;23.17
68456;BME280;55437;55.046;38.838;2023-05-16T06:57:24;100742.38;;;27.38;22.78
68456;BME280;55437;55.046;38.838;2023-05-16T06:59:50;100746.81;;;27.07;23.06
68456;BME280;55437;55.046;38.838;2023-05-16T07:02:16;100751.75;;;27.31;22.68
68456;BME280;55437;55.046;38.838;2023-05-16T07:04:41;100752.06;;;27.87;22.83
68456;BME280;55437;55.046;38.838;2023-05-16T07:07:07;100741.66;;;28.34;22.84
68456;BME280;55437;55.046;38.838;2023-05-16T07:09:34;100740.13;;;28.22;22.08
68456;BME280;55437;55.046;38.838;2023-05-16T07:11:59;100738.44;;;28.11;22.11
68456;BME280;55437;55.046;38.838;2023-05-16T07:14:25;100744.72;;;28.10;21.88
68456;BME280;55437;55.046;38.838;2023-05-16T07:16:51;100735.38;;;28.16;21.96
68456;BME280;55437;55.046;38.838;2023-05-16T07:19:19;100737.34;;;28.33;22.04
68456;BME280;55437;55.046;38.838;2023-05-16T07:21:45;100746.41;;;28.77;22.11
68456;BME280;55437;55.046;38.838;2023-05-16T07:24:11;100742.13;;;28.86;21.83
68456;BME280;55437;55.046;38.838;2023-05-16T07:26:37;100747.16;;;28.70;21.78
68456;BME280;55437;55.046;38.838;2023-05-16T07:29:02;100739.25;;;28.60;21.76
68456;BME280;55437;55.046;38.838;2023-05-16T07:31:29;100739.09;;;28.61;21.43
68456;BME280;55437;55.046;38.838;2023-05-16T07:33:55;100736.09;;;28.18;21.55
68456;BME280;55437;55.046;38.838;2023-05-16T07:36:21;100728.56;;;27.84;21.80
68456;BME280;55437;55.046;38.838;2023-05-16T07:38:48;100724.13;;;28.04;21.92
68456;BME280;55437;55.046;38.838;2023-05-16T07:41:13;100721.06;;;28.28;21.90
68456;BME280;55437;55.046;38.838;2023-05-16T07:43:39;100717.63;;;28.18;21.72
68456;BME280;55437;55.046;38.838;2023-05-16T07:46:05;100721.38;;;27.77;21.96
68456;BME280;55437;55.046;38.838;2023-05-16T07:48:30;100721.06;;;27.70;22.07
68456;BME280;55437;55.046;38.838;2023-05-16T07:50:56;100718.44;;;27.70;21.95
68456;BME280;55437;55.046;38.838;2023-05-16T07:53:22;100718.16;;;27.83;21.83
68456;BME280;55437;55.046;38.838;2023-05-16T07:55:48;100715.25;;;27.95;21.64
68456;BME280;55437;55.046;38.838;2023-05-16T07:58:14;100722.91;;;27.89;21.37
68456;BME280;55437;55.046;38.838;2023-05-16T08:00:40;100723.56;;;27.91;21.75
68456;BME280;55437;55.046;38.838;2023-05-16T08:03:05;100717.00;;;27.07;21.96
68456;BME280;55437;55.046;38.838;2023-05-16T08:05:31;100725.34;;;27.12;21.97
68456;BME280;55437;55.046;38.838;2023-05-16T08:07:57;100725.41;;;27.31;22.02
68456;BME280;55437;55.046;38.838;2023-05-16T08:10:23;100719.00;;;27.64;21.73
68456;BME280;55437;55.046;38.838;2023-05-16T08:12:49;100713.28;;;27.69;21.37
68456;BME280;55437;55.046;38.838;2023-05-16T08:15:15;100714.59;;;27.34;21.91
68456;BME280;55437;55.046;38.838;2023-05-16T08:17:40;100718.44;;;26.90;22.24
68456;BME280;55437;55.046;38.838;2023-05-16T08:20:07;100707.66;;;26.10;22.61
68456;BME280;55437;55.046;38.838;2023-05-16T08:22:33;100701.97;;;26.05;23.26
68456;BME280;55437;55.046;38.838;2023-05-16T08:24:58;100695.03;;;26.45;22.99
68456;BME280;55437;55.046;38.838;2023-05-16T08:27:26;100702.09;;;26.66;23.01
68456;BME280;55437;55.046;38.838;2023-05-16T08:29:52;100693.09;;;26.27;23.41
68456;BME280;55437;55.046;38.838;2023-05-16T08:32:17;100693.22;;;26.25;23.19
68456;BME280;55437;55.046;38.838;2023-05-16T08:34:43;100692.56;;;26.44;23.43
68456;BME280;55437;55.046;38.838;2023-05-16T08:37:09;100696.41;;;26.70;22.63
68456;BME280;55437;55.046;38.838;2023-05-16T08:39:39;100684.16;;;26.60;22.73
68456;BME280;55437;55.046;38.838;2023-05-16T08:42:07;100690.59;;;25.72;22.49
68456;BME280;55437;55.046;38.838;2023-05-16T08:44:33;100686.88;;;25.32;22.98
68456;BME280;55437;55.046;38.838;2023-05-16T08:47:06;100677.94;;;25.23;24.14
68456;BME280;55437;55.046;38.838;2023-05-16T08:49:38;100673.72;;;24.76;25.22
68456;BME280;55437;55.046;38.838;2023-05-16T08:52:07;100676.81;;;24.01;26.19
68456;BME280;55437;55.046;38.838;2023-05-16T08:54:33;100674.34;;;23.52;27.05
68456;BME280;55437;55.046;38.838;2023-05-16T08:57:00;100670.38;;;23.34;27.07
68456;BME280;55437;55.046;38.838;2023-05-16T08:59:26;100675.06;;;23.18;27.66
68456;BME280;55437;55.046;38.838;2023-05-16T09:01:54;100671.16;;;23.11;27.68
68456;BME280;55437;55.046;38.838;2023-05-16T09:04:20;100669.22;;;22.51;28.40
68456;BME280;55437;55.046;38.838;2023-05-16T09:06:46;100673.78;;;22.22;29.13
68456;BME280;55437;55.046;38.838;2023-05-16T09:09:12;100673.25;;;21.50;29.87
68456;BME280;55437;55.046;38.838;2023-05-16T09:11:38;100669.59;;;21.26;30.29
68456;BME280;55437;55.046;38.838;2023-05-16T09:14:04;100669.59;;;21.12;30.70
68456;BME280;55437;55.046;38.838;2023-05-16T09:16:30;100674.94;;;20.82;31.23
68456;BME280;55437;55.046;38.838;2023-05-16T09:18:58;100674.25;;;20.93;31.10
68456;BME280;55437;55.046;38.838;2023-05-16T09:21:32;100669.59;;;21.12;30.97
68456;BME280;55437;55.046;38.838;2023-05-16T09:24:06;100665.06;;;21.42;31.11
68456;BME280;55437;55.046;38.838;2023-05-16T09:26:35;100664.13;;;21.43;30.95
68456;BME280;55437;55.046;38.838;2023-05-16T09:29:01;100665.25;;;21.39;31.07
68456;BME280;55437;55.046;38.838;2023-05-16T09:31:34;100665.94;;;21.29;30.81
68456;BME280;55437;55.046;38.838;2023-05-16T09:34:21;100660.63;;;21.02;30.12
68456;BME280;55437;55.046;38.838;2023-05-16T09:36:53;100661.03;;;20.96;30.15
68456;BME280;55437;55.046;38.838;2023-05-16T09:39:34;100665.59;;;21.06;30.65
68456;BME280;55437;55.046;38.838;2023-05-16T09:42:00;100665.91;;;20.88;30.84
68456;BME280;55437;55.046;38.838;2023-05-16T09:44:27;100651.16;;;21.01;31.04
68456;BME280;55437;55.046;38.838;2023-05-16T09:46:53;100660.53;;;21.03;31.22
68456;BME280;55437;55.046;38.838;2023-05-16T09:49:20;100664.66;;;20.93;31.73
68456;BME280;55437;55.046;38.838;2023-05-16T09:52:04;100670.19;;;20.89;31.69
68456;BME280;55437;55.046;38.838;2023-05-16T09:54:31;100653.03;;;20.84;31.43
68456;BME280;55437;55.046;38.838;2023-05-16T09:56:57;100650.31;;;20.86;31.76
68456;BME280;55437;55.046;38.838;2023-05-16T09:59:24;100653.28;;;21.08;31.97
68456;BME280;55437;55.046;38.838;2023-05-16T10:01:52;100652.78;;;21.30;31.67
68456;BME280;55437;55.046;38.838;2023-05-16T10:04:18;100644.56;;;21.36;31.33
68456;BME280;55437;55.046;38.838;2023-05-16T10:09:33;100643.09;;;21.18;31.69
68456;BME280;55437;55.046;38.838;2023-05-16T10:12:03;100641.06;;;21.09;32.11
68456;BME280;55437;55.046;38.838;2023-05-16T10:14:35;100642.56;;;20.99;31.58
68456;BME280;55437;55.046;38.838;2023-05-16T10:20:06;100640.06;;;20.83;32.34
68456;BME280;55437;55.046;38.838;2023-05-16T10:22:35;100649.84;;;20.94;32.78
68456;BME280;55437;55.046;38.838;2023-05-16T10:25:08;100641.84;;;20.82;32.74
68456;BME280;55437;55.046;38.838;2023-05-16T10:27:37;100636.34;;;20.87;32.58
68456;BME280;55437;55.046;38.838;2023-05-16T10:30:24;100634.44;;;20.89;32.71
68456;BME280;55437;55.046;38.838;2023-05-16T10:32:50;100643.34;;;20.87;32.98
68456;BME280;55437;55.046;38.838;2023-05-16T10:38:20;100629.69;;;20.96;32.89
68456;BME280;55437;55.046;38.838;2023-05-16T10:40:47;100625.47;;;21.07;32.77
68456;BME280;55437;55.046;38.838;2023-05-16T10:43:25;100621.34;;;21.17;32.33
68456;BME280;55437;55.046;38.838;2023-05-16T10:46:10;100636.19;;;21.17;32.61
68456;BME280;55437;55.046;38.838;2023-05-16T10:48:38;100631.97;;;21.14;32.61
68456;BME280;55437;55.046;38.838;2023-05-16T10:56:55;100623.41;;;21.27;32.12
68456;BME280;55437;55.046;38.838;2023-05-16T10:59:23;100627.31;;;21.34;32.39
68456;BME280;55437;55.046;38.838;2023-05-16T11:01:54;100624.06;;;21.16;32.04
68456;BME280;55437;55.046;38.838;2023-05-16T11:04:20;100617.91;;;21.17;32.19
68456;BME280;55437;55.046;38.838;2023-05-16T11:06:50;100611.41;;;21.24;32.10
68456;BME280;55437;55.046;38.838;2023-05-16T11:09:18;100609.91;;;21.20;32.28
68456;BME280;55437;55.046;38.838;2023-05-16T11:11:55;100612.53;;;21.20;32.39
68456;BME280;55437;55.046;38.838;2023-05-16T11:19:44;100607.28;;;20.51;33.24
68456;BME280;55437;55.046;38.838;2023-05-16T11:22:32;100601.03;;;20.39;33.60
68456;BME280;55437;55.046;38.838;2023-05-16T11:25:00;100603.75;;;20.22;33.34
68456;BME280;55437;55.046;38.838;2023-05-16T11:27:36;100605.78;;;20.17;33.67
68456;BME280;55437;55.046;38.838;2023-05-16T11:32:39;100599.06;;;20.42;32.97
68456;BME280;55437;55.046;38.838;2023-05-16T11:35:07;100596.94;;;20.63;33.12
68456;BME280;55437;55.046;38.838;2023-05-16T11:37:52;100591.31;;;20.83;32.63
68456;BME280;55437;55.046;38.838;2023-05-16T11:40:17;100587.09;;;20.95;32.89
68456;BME280;55437;55.046;38.838;2023-05-16T11:42:45;100587.25;;;21.06;32.52
68456;BME280;55437;55.046;38.838;2023-05-16T11:45:16;100580.34;;;21.05;32.29
68456;BME280;55437;55.046;38.838;2023-05-16T11:47:44;100575.44;;;21.01;32.65
68456;BME280;55437;55.046;38.838;2023-05-16T11:50:13;100576.38;;;21.00;32.73
68456;BME280;55437;55.046;38.838;2023-05-16T11:52:47;100558.94;;;21.00;33.20
68456;BME280;55437;55.046;38.838;2023-05-16T11:55:15;100571.69;;;20.91;33.48
68456;BME280;55437;55.046;38.838;2023-05-16T11:57:42;100564.84;;;20.75;33.01
68456;BME280;55437;55.046;38.838;2023-05-16T12:00:14;100565.97;;;20.71;32.86
68456;BME280;55437;55.046;38.838;2023-05-16T12:02:41;100564.47;;;20.67;33.51
68456;BME280;55437;55.046;38.838;2023-05-16T12:05:08;100565.47;;;20.79;33.54
68456;BME280;55437;55.046;38.838;2023-05-16T12:07:35;100566.16;;;20.68;33.21
68456;BME280;55437;55.046;38.838;2023-05-16T12:10:05;100557.41;;;20.69;33.44
68456;BME280;55437;55.046;38.838;2023-05-16T12:12:32;100554.59;;;20.72;33.17
68456;BME280;55437;55.046;38.838;2023-05-16T12:14:58;100548.69;;;20.83;32.92
68456;BME280;55437;55.046;38.838;2023-05-16T12:17:24;100551.03;;;20.88;33.37
68456;BME280;55437;55.046;38.838;2023-05-16T12:19:51;100549.31;;;21.01;33.38
68456;BME280;55437;55.046;38.838;2023-05-16T12:22:19;100557.16;;;21.01;33.29
68456;BME280;55437;55.046;38.838;2023-05-16T12:24:45;100549.31;;;21.01;32.96
68456;BME280;55437;55.046;38.838;2023-05-16T12:27:10;100546.41;;;21.05;32.85
68456;BME280;55437;55.046;38.838;2023-05-16T12:29:37;100551.94;;;21.01;32.80
68456;BME280;55437;55.046;38.838;2023-05-16T12:32:06;100541.97;;;20.93;32.62
68456;BME280;55437;55.046;38.838;2023-05-16T12:34:33;100551.28;;;20.97;32.81
68456;BME280;55437;55.046;38.838;2023-05-16T12:36:59;100543.03;;;21.03;32.66
68456;BME280;55437;55.046;38.838;2023-05-16T12:39:26;100549.78;;;20.93;32.67
68456;BME280;55437;55.046;38.838;2023-05-16T12:41:52;100535.38;;;20.88;32.47
68456;BME280;55437;55.046;38.838;2023-05-16T12:44:18;100539.66;;;20.89;32.73
68456;BME280;55437;55.046;38.838;2023-05-16T12:46:46;100536.72;;;20.93;33.00
68456;BME280;55437;55.046;38.838;2023-05-16T12:49:13;100543.44;;;20.97;33.08
68456;BME280;55437;55.046;38.838;2023-05-16T12:51:39;100533.94;;;20.96;33.07
68456;BME280;55437;55.046;38.838;2023-05-16T12:54:09;100529.78;;;21.06;33.35
68456;BME280;55437;55.046;38.838;2023-05-16T12:56:41;100529.59;;;21.09;32.97
68456;BME280;55437;55.046;38.838;2023-05-16T12:59:08;100529.97;;;21.03;33.15
68456;BME280;55437;55.046;38.838;2023-05-16T13:01:35;100533.16;;;21.08;33.46
68456;BME280;55437;55.046;38.838;2023-05-16T13:04:01;100531.72;;;21.17;33.84
68456;BME280;55437;55.046;38.838;2023-05-16T13:06:27;100539.09;;;21.25;33.73
68456;BME280;55437;55.046;38.838;2023-05-16T13:08:53;100532.19;;;21.24;33.69
68456;BME280;55437;55.046;38.838;2023-05-16T13:11:19;100543.09;;;21.16;33.80
68456;BME280;55437;55.046;38.838;2023-05-16T13:13:45;100528.66;;;21.10;33.49
68456;BME280;55437;55.046;38.838;2023-05-16T13:16:10;100541.41;;;21.15;32.98